createdAt,value
2022-09-14T00:00:32.184Z,7.40
2022-09-14T00:01:32.198Z,7.00
2022-09-14T00:02:32.325Z,6.80
2022-09-14T00:03:32.140Z,7.70
2022-09-14T00:04:32.104Z,8.70
2022-09-14T00:05:32.139Z,9.20
2022-09-14T00:06:32.115Z,7.80
2022-09-14T00:07:32.074Z,9.50
2022-09-14T00:08:32.117Z,7.80
2022-09-14T00:09:32.055Z,6.60
2022-09-14T00:10:32.049Z,8.30
2022-09-14T00:11:32.043Z,6.70
2022-09-14T00:12:32.054Z,6.40
2022-09-14T00:13:31.999Z,5.20
2022-09-14T00:14:31.982Z,7.00
2022-09-14T00:15:31.991Z,7.90
2022-09-14T00:16:32.080Z,7.60
2022-09-14T00:17:31.969Z,7.20
2022-09-14T00:18:31.947Z,7.00
2022-09-14T00:19:31.932Z,6.70
2022-09-14T00:20:31.949Z,7.50
2022-09-14T00:21:31.951Z,8.50
2022-09-14T00:22:31.894Z,6.50
2022-09-14T00:23:32.517Z,5.80
2022-09-14T00:24:38.504Z,7.30
2022-09-14T00:25:32.884Z,5.60
2022-09-14T00:26:31.848Z,9.20
2022-09-14T00:27:32.443Z,4.50
2022-09-14T00:28:32.665Z,6.10
2022-09-14T00:29:31.854Z,6.00
2022-09-14T00:30:31.828Z,6.60
2022-09-14T00:31:32.004Z,9.70
2022-09-14T00:32:31.835Z,7.20
2022-09-14T00:33:31.837Z,6.40
2022-09-14T00:34:31.784Z,6.20
2022-09-14T00:35:31.796Z,7.40
2022-09-14T00:36:31.769Z,8.90
2022-09-14T00:37:32.568Z,5.30
2022-09-14T00:38:31.739Z,7.30
2022-09-14T00:39:31.763Z,7.70
2022-09-14T00:40:31.733Z,10.00
2022-09-14T00:41:31.731Z,8.40
2022-09-14T00:42:31.705Z,6.10
2022-09-14T00:43:31.728Z,5.50
2022-09-14T00:44:31.662Z,5.20
2022-09-14T00:45:31.698Z,5.00
2022-09-14T00:46:31.642Z,3.80
2022-09-14T00:47:31.692Z,4.60
2022-09-14T00:48:31.688Z,5.70
2022-09-14T00:49:31.656Z,6.70
2022-09-14T00:50:31.659Z,7.20
2022-09-14T00:51:31.602Z,4.40
2022-09-14T00:52:31.598Z,7.40
2022-09-14T00:53:31.618Z,5.40
2022-09-14T00:54:31.577Z,4.50
2022-09-14T00:55:31.557Z,6.30
2022-09-14T00:56:31.540Z,6.00
2022-09-14T00:57:31.545Z,5.20
2022-09-14T00:58:31.536Z,8.10
2022-09-14T00:59:31.579Z,5.80
2022-09-14T01:00:31.500Z,4.40
2022-09-14T01:01:31.562Z,4.50
2022-09-14T01:02:31.509Z,5.80
2022-09-14T01:03:31.455Z,4.60
2022-09-14T01:04:32.525Z,5.50
2022-09-14T01:05:31.469Z,4.50
2022-09-14T01:06:31.415Z,3.90
2022-09-14T01:07:31.463Z,6.90
2022-09-14T01:08:31.450Z,5.10
2022-09-14T01:09:31.441Z,5.60
2022-09-14T01:10:31.463Z,5.90
2022-09-14T01:11:31.389Z,4.70
2022-09-14T01:12:31.399Z,4.70
2022-09-14T01:13:31.388Z,4.40
2022-09-14T01:14:31.382Z,6.00
2022-09-14T01:15:31.425Z,5.70
2022-09-14T01:16:31.332Z,4.70
2022-09-14T01:17:31.319Z,7.50
2022-09-14T01:18:31.311Z,5.50
2022-09-14T01:19:31.297Z,5.60
2022-09-14T01:20:31.314Z,6.50
2022-09-14T01:21:31.254Z,6.00
2022-09-14T01:22:31.266Z,5.80
2022-09-14T01:23:31.241Z,4.00
2022-09-14T01:24:31.265Z,6.70
2022-09-14T01:25:31.271Z,4.70
2022-09-14T01:26:31.229Z,5.20
2022-09-14T01:27:31.206Z,6.70
2022-09-14T01:28:31.184Z,4.10
2022-09-14T01:29:31.193Z,5.20
2022-09-14T01:30:31.198Z,6.40
2022-09-14T01:31:31.222Z,4.90
2022-09-14T01:32:31.143Z,5.20
2022-09-14T01:33:31.177Z,6.70
2022-09-14T01:34:31.129Z,5.60
2022-09-14T01:35:31.240Z,5.50
2022-09-14T01:36:31.111Z,7.70
2022-09-14T01:37:31.133Z,7.70
2022-09-14T01:38:31.099Z,8.10
2022-09-14T01:39:31.084Z,8.40
2022-09-14T01:40:31.115Z,5.40
2022-09-14T01:41:31.108Z,5.30
2022-09-14T01:42:31.047Z,4.10
2022-09-14T01:43:31.039Z,5.50
2022-09-14T01:44:31.039Z,7.20
2022-09-14T01:45:31.047Z,5.40
2022-09-14T01:46:31.052Z,4.40
2022-09-14T01:47:30.990Z,7.40
2022-09-14T01:48:30.971Z,11.20
2022-09-14T01:49:31.045Z,6.10
2022-09-14T01:50:30.951Z,7.20
2022-09-14T01:51:31.023Z,6.40
2022-09-14T01:52:30.934Z,4.80
2022-09-14T01:53:30.918Z,5.50
2022-09-14T01:54:30.945Z,4.80
2022-09-14T01:55:30.919Z,7.00
2022-09-14T01:56:30.895Z,7.30
2022-09-14T01:57:30.945Z,5.80
2022-09-14T01:58:30.872Z,6.70
2022-09-14T01:59:30.945Z,6.10
2022-09-14T02:00:30.848Z,6.80
2022-09-14T02:01:30.906Z,4.00
2022-09-14T02:02:30.983Z,8.00
2022-09-14T02:03:30.810Z,5.30
2022-09-14T02:04:30.813Z,4.50
2022-09-14T02:05:30.792Z,7.20
2022-09-14T02:06:30.762Z,5.20
2022-09-14T02:07:31.810Z,9.30
2022-09-14T02:08:30.764Z,6.90
2022-09-14T02:09:30.736Z,3.80
2022-09-14T02:10:30.750Z,7.70
2022-09-14T02:11:30.744Z,5.80
2022-09-14T02:12:30.747Z,6.90
2022-09-14T02:13:30.706Z,6.60
2022-09-14T02:14:30.703Z,8.00
2022-09-14T02:15:30.667Z,6.10
2022-09-14T02:16:30.751Z,6.90
2022-09-14T02:17:30.681Z,5.30
2022-09-14T02:18:30.636Z,4.70
2022-09-14T02:19:30.652Z,4.90
2022-09-14T02:20:30.634Z,7.50
2022-09-14T02:21:30.630Z,5.80
2022-09-14T02:22:30.629Z,5.10
2022-09-14T02:23:30.662Z,5.50
2022-09-14T02:24:30.590Z,5.60
2022-09-14T02:25:31.592Z,5.70
2022-09-14T02:26:30.584Z,6.00
2022-09-14T02:27:30.804Z,8.60
2022-09-14T02:28:30.585Z,6.00
2022-09-14T02:29:30.554Z,4.90
2022-09-14T02:30:30.539Z,6.70
2022-09-14T02:31:30.541Z,9.00
2022-09-14T02:32:30.518Z,7.60
2022-09-14T02:33:30.528Z,8.10
2022-09-14T02:34:30.522Z,5.80
2022-09-14T02:35:30.481Z,6.40
2022-09-14T02:36:30.627Z,4.60
2022-09-14T02:37:30.524Z,8.00
2022-09-14T02:38:30.462Z,8.60
2022-09-14T02:39:30.585Z,6.70
2022-09-14T02:40:30.499Z,6.50
2022-09-14T02:41:30.419Z,7.00
2022-09-14T02:42:30.457Z,6.20
2022-09-14T02:43:30.426Z,5.90
2022-09-14T02:44:30.382Z,7.00
2022-09-14T02:45:30.403Z,8.30
2022-09-14T02:46:30.436Z,8.40
2022-09-14T02:47:30.381Z,7.80
2022-09-14T02:48:30.347Z,8.20
2022-09-14T02:49:31.370Z,8.70
2022-09-14T02:50:30.346Z,7.00
2022-09-14T02:51:30.321Z,7.10
2022-09-14T02:52:30.299Z,5.60
2022-09-14T02:53:30.347Z,7.50
2022-09-14T02:54:30.297Z,8.90
2022-09-14T02:55:30.304Z,7.50
2022-09-14T02:56:30.285Z,5.60
2022-09-14T02:57:31.275Z,6.00
2022-09-14T02:58:30.266Z,9.10
2022-09-14T02:59:30.230Z,6.50
2022-09-14T03:00:30.223Z,4.30
2022-09-14T03:01:30.289Z,4.90
2022-09-14T03:02:30.167Z,7.10
2022-09-14T03:03:34.841Z,6.80
2022-09-14T03:04:30.169Z,12.20
2022-09-14T03:05:30.165Z,5.20
2022-09-14T03:06:30.134Z,5.20
2022-09-14T03:07:30.158Z,6.80
2022-09-14T03:08:30.117Z,5.40
2022-09-14T03:09:30.143Z,7.40
2022-09-14T03:10:30.141Z,7.10
2022-09-14T03:11:30.104Z,4.60
2022-09-14T03:12:30.122Z,7.90
2022-09-14T03:13:30.105Z,7.60
2022-09-14T03:14:30.050Z,7.20
2022-09-14T03:15:30.056Z,5.00
2022-09-14T03:16:30.149Z,5.70
2022-09-14T03:17:30.057Z,7.00
2022-09-14T03:18:30.048Z,5.40
2022-09-14T03:19:30.036Z,5.80
2022-09-14T03:20:29.991Z,8.20
2022-09-14T03:21:29.999Z,8.50
2022-09-14T03:22:30.497Z,8.10
2022-09-14T03:23:30.037Z,8.20
2022-09-14T03:24:29.953Z,6.10
2022-09-14T03:25:29.960Z,8.50
2022-09-14T03:26:29.941Z,6.60
2022-09-14T03:27:29.948Z,8.20
2022-09-14T03:28:29.947Z,9.10
2022-09-14T03:29:29.892Z,8.80
2022-09-14T03:30:29.918Z,8.60
2022-09-14T03:31:30.340Z,8.80
2022-09-14T03:32:29.868Z,7.90
2022-09-14T03:33:29.865Z,6.50
2022-09-14T03:34:29.855Z,8.60
2022-09-14T03:35:29.873Z,10.80
2022-09-14T03:36:29.817Z,7.80
2022-09-14T03:37:29.819Z,7.80
2022-09-14T03:38:29.817Z,7.90
2022-09-14T03:39:29.830Z,9.90
2022-09-14T03:40:29.839Z,8.40
2022-09-14T03:41:29.799Z,11.10
2022-09-14T03:42:29.758Z,8.60
2022-09-14T03:43:29.817Z,7.60
2022-09-14T03:44:29.779Z,7.40
2022-09-14T03:45:29.771Z,10.50
2022-09-14T03:46:29.790Z,8.80
2022-09-14T03:47:29.708Z,9.30
2022-09-14T03:48:29.707Z,11.00
2022-09-14T03:49:29.707Z,13.30
2022-09-14T03:50:29.716Z,9.00
2022-09-14T03:51:29.687Z,8.60
2022-09-14T03:52:29.664Z,9.80
2022-09-14T03:53:29.651Z,11.70
2022-09-14T03:54:29.647Z,8.10
2022-09-14T03:55:29.657Z,14.70
2022-09-14T03:56:29.631Z,12.60
2022-09-14T03:57:29.586Z,12.70
2022-09-14T03:58:29.597Z,11.20
2022-09-14T03:59:29.662Z,10.70
2022-09-14T04:00:29.566Z,14.00
2022-09-14T04:01:29.614Z,12.10
2022-09-14T04:02:29.620Z,13.90
2022-09-14T04:03:29.540Z,16.10
2022-09-14T04:04:29.527Z,12.70
2022-09-14T04:05:30.515Z,10.00
2022-09-14T04:06:29.562Z,10.60
2022-09-14T04:07:29.500Z,10.50
2022-09-14T04:08:29.483Z,10.30
2022-09-14T04:09:29.461Z,11.30
2022-09-14T04:10:29.493Z,8.40
2022-09-14T04:11:29.479Z,14.90
2022-09-14T04:12:29.441Z,15.10
2022-09-14T04:13:29.441Z,18.30
2022-09-14T04:14:29.421Z,16.10
2022-09-14T04:15:29.420Z,17.20
2022-09-14T04:16:29.449Z,22.20
2022-09-14T04:17:30.158Z,14.90
2022-09-14T04:18:29.389Z,17.90
2022-09-14T04:19:29.367Z,18.50
2022-09-14T04:20:29.362Z,18.70
2022-09-14T04:21:29.344Z,20.00
2022-09-14T04:22:29.368Z,16.90
2022-09-14T04:23:29.337Z,20.70
2022-09-14T04:24:30.638Z,19.40
2022-09-14T04:25:30.312Z,19.20
2022-09-14T04:26:30.010Z,18.00
2022-09-14T04:27:29.288Z,20.10
2022-09-14T04:28:29.344Z,17.00
2022-09-14T04:29:29.264Z,18.00
2022-09-14T04:30:29.255Z,22.00
2022-09-14T04:31:29.279Z,20.60
2022-09-14T04:32:34.035Z,23.60
2022-09-14T04:33:29.442Z,25.20
2022-09-14T04:34:29.265Z,23.10
2022-09-14T04:35:29.309Z,23.70
2022-09-14T04:36:29.199Z,25.60
2022-09-14T04:37:29.234Z,29.10
2022-09-14T04:38:29.192Z,30.40
2022-09-14T04:39:29.177Z,30.50
2022-09-14T04:40:29.251Z,27.60
2022-09-14T04:41:29.164Z,29.30
2022-09-14T04:42:29.125Z,25.70
2022-09-14T04:43:29.127Z,26.70
2022-09-14T04:44:29.139Z,25.80
2022-09-14T04:45:29.115Z,28.90
2022-09-14T04:46:29.129Z,22.10
2022-09-14T04:47:29.092Z,22.30
2022-09-14T04:48:29.070Z,27.20
2022-09-14T04:49:29.082Z,26.80
2022-09-14T04:50:29.075Z,25.20
2022-09-14T04:51:29.027Z,22.10
2022-09-14T04:52:29.073Z,23.00
2022-09-14T04:53:29.017Z,28.40
2022-09-14T04:54:28.993Z,22.10
2022-09-14T04:55:29.063Z,20.40
2022-09-14T04:56:28.995Z,24.00
2022-09-14T04:57:28.973Z,19.60
2022-09-14T04:58:28.975Z,26.30
2022-09-14T04:59:28.965Z,27.60
2022-09-14T05:00:28.985Z,30.50
2022-09-14T05:01:28.969Z,31.10
2022-09-14T05:02:28.936Z,29.70
2022-09-14T05:03:29.005Z,25.70
2022-09-14T05:04:28.893Z,25.60
2022-09-14T05:05:28.878Z,24.40
2022-09-14T05:06:28.896Z,27.20
2022-09-14T05:07:28.857Z,29.00
2022-09-14T05:08:28.870Z,28.30
2022-09-14T05:09:28.839Z,29.00
2022-09-14T05:10:28.823Z,26.10
2022-09-14T05:11:28.873Z,25.70
2022-09-14T05:12:28.849Z,24.60
2022-09-14T05:13:28.800Z,30.10
2022-09-14T05:14:28.803Z,27.60
2022-09-14T05:15:28.767Z,25.40
2022-09-14T05:16:28.868Z,26.60
2022-09-14T05:17:28.759Z,21.60
2022-09-14T05:18:28.748Z,19.30
2022-09-14T05:19:28.733Z,25.00
2022-09-14T05:20:28.902Z,22.40
2022-09-14T05:21:28.719Z,20.50
2022-09-14T05:22:28.715Z,19.60
2022-09-14T05:23:28.705Z,19.30
2022-09-14T05:24:28.694Z,19.10
2022-09-14T05:25:28.682Z,17.60
2022-09-14T05:26:28.672Z,21.30
2022-09-14T05:27:28.671Z,16.80
2022-09-14T05:28:28.655Z,20.10
2022-09-14T05:29:28.637Z,21.40
2022-09-14T05:30:28.629Z,19.90
2022-09-14T05:31:28.663Z,20.90
2022-09-14T05:32:28.640Z,21.10
2022-09-14T05:33:28.611Z,22.00
2022-09-14T05:34:28.565Z,18.40
2022-09-14T05:35:28.570Z,22.60
2022-09-14T05:36:28.583Z,21.40
2022-09-14T05:37:28.557Z,21.30
2022-09-14T05:38:28.574Z,26.50
2022-09-14T05:39:28.536Z,24.10
2022-09-14T05:40:28.580Z,22.90
2022-09-14T05:41:28.512Z,20.70
2022-09-14T05:42:28.517Z,23.10
2022-09-14T05:43:28.544Z,26.50
2022-09-14T05:44:28.497Z,22.80
2022-09-14T05:45:28.479Z,24.10
2022-09-14T05:46:28.507Z,21.60
2022-09-14T05:47:28.505Z,23.00
2022-09-14T05:48:28.435Z,24.10
2022-09-14T05:49:28.454Z,23.90
2022-09-14T05:50:28.435Z,18.20
2022-09-14T05:51:28.469Z,23.20
2022-09-14T05:52:28.408Z,25.50
2022-09-14T05:53:28.393Z,20.20
2022-09-14T05:54:28.388Z,23.30
2022-09-14T05:55:28.365Z,21.80
2022-09-14T05:56:28.371Z,20.10
2022-09-14T05:57:29.366Z,20.70
2022-09-14T05:58:28.357Z,21.10
2022-09-14T05:59:28.395Z,19.90
2022-09-14T06:00:28.359Z,18.70
2022-09-14T06:01:28.371Z,19.90
2022-09-14T06:02:28.310Z,19.80
2022-09-14T06:03:28.325Z,22.70
2022-09-14T06:04:28.285Z,23.20
2022-09-14T06:05:28.338Z,23.50
2022-09-14T06:06:28.266Z,25.80
2022-09-14T06:07:28.328Z,27.00
2022-09-14T06:08:28.273Z,28.10
2022-09-14T06:09:32.926Z,26.70
2022-09-14T06:10:28.205Z,20.80
2022-09-14T06:11:28.213Z,16.60
2022-09-14T06:12:28.181Z,22.40
2022-09-14T06:13:28.153Z,20.30
2022-09-14T06:14:28.177Z,22.10
2022-09-14T06:15:28.182Z,22.60
2022-09-14T06:16:28.284Z,20.80
2022-09-14T06:17:28.150Z,21.10
2022-09-14T06:18:28.143Z,22.70
2022-09-14T06:19:28.102Z,22.50
2022-09-14T06:20:28.185Z,20.40
2022-09-14T06:21:28.130Z,23.10
2022-09-14T06:22:28.077Z,19.00
2022-09-14T06:23:28.072Z,17.90
2022-09-14T06:24:28.078Z,20.00
2022-09-14T06:25:28.174Z,16.40
2022-09-14T06:26:28.116Z,17.60
2022-09-14T06:27:28.060Z,13.30
2022-09-14T06:28:28.038Z,14.70
2022-09-14T06:29:28.010Z,13.80
2022-09-14T06:30:28.014Z,13.50
2022-09-14T06:31:28.010Z,12.70
2022-09-14T06:32:27.983Z,13.30
2022-09-14T06:33:27.965Z,13.70
2022-09-14T06:34:27.954Z,15.30
2022-09-14T06:35:27.948Z,11.10
2022-09-14T06:36:27.954Z,12.50
2022-09-14T06:37:27.920Z,14.90
2022-09-14T06:38:27.939Z,15.00
2022-09-14T06:39:27.900Z,12.30
2022-09-14T06:40:28.000Z,12.80
2022-09-14T06:41:27.908Z,11.90
2022-09-14T06:42:27.870Z,11.90
2022-09-14T06:43:27.853Z,12.00
2022-09-14T06:44:27.843Z,10.60
2022-09-14T06:45:27.838Z,12.00
2022-09-14T06:46:27.825Z,11.70
2022-09-14T06:47:27.805Z,13.10
2022-09-14T06:48:27.796Z,12.90
2022-09-14T06:49:27.790Z,11.40
2022-09-14T06:50:27.796Z,14.90
2022-09-14T06:51:27.780Z,13.00
2022-09-14T06:52:31.722Z,13.90
2022-09-14T06:53:27.726Z,10.80
2022-09-14T06:54:27.736Z,12.30
2022-09-14T06:55:27.750Z,12.80
2022-09-14T06:56:27.732Z,11.80
2022-09-14T06:57:27.689Z,13.00
2022-09-14T06:58:27.679Z,17.00
2022-09-14T06:59:27.688Z,12.40
2022-09-14T07:00:27.696Z,11.50
2022-09-14T07:01:27.699Z,16.60
2022-09-14T07:02:27.698Z,11.10
2022-09-14T07:03:27.629Z,10.30
2022-09-14T07:04:27.630Z,12.60
2022-09-14T07:05:27.669Z,15.90
2022-09-14T07:06:27.643Z,14.60
2022-09-14T07:07:27.594Z,11.90
2022-09-14T07:08:27.653Z,11.20
2022-09-14T07:09:27.577Z,10.40
2022-09-14T07:10:27.590Z,12.20
2022-09-14T07:11:27.996Z,11.40
2022-09-14T07:12:27.575Z,12.90
2022-09-14T07:13:28.971Z,12.00
2022-09-14T07:14:32.013Z,12.00
2022-09-14T07:15:27.651Z,12.50
2022-09-14T07:16:27.582Z,13.30
2022-09-14T07:17:27.506Z,11.80
2022-09-14T07:18:27.565Z,14.80
2022-09-14T07:19:27.547Z,12.20
2022-09-14T07:20:27.844Z,9.00
2022-09-14T07:21:27.552Z,10.80
2022-09-14T07:22:27.636Z,9.70
2022-09-14T07:23:27.470Z,10.00
2022-09-14T07:24:27.553Z,9.30
2022-09-14T07:25:27.453Z,10.00
2022-09-14T07:26:27.611Z,13.60
2022-09-14T07:27:27.610Z,8.40
2022-09-14T07:28:27.450Z,11.30
2022-09-14T07:29:27.398Z,10.40
2022-09-14T07:30:27.437Z,11.90
2022-09-14T07:31:27.581Z,9.80
2022-09-14T07:32:27.352Z,7.60
2022-09-14T07:33:27.372Z,9.90
2022-09-14T07:34:27.354Z,11.10
2022-09-14T07:35:27.332Z,8.00
2022-09-14T07:36:29.501Z,8.60
2022-09-14T07:37:27.298Z,6.30
2022-09-14T07:38:48.598Z,9.00
2022-09-14T07:39:27.277Z,6.70
2022-09-14T07:40:27.379Z,9.60
2022-09-14T07:41:27.314Z,9.10
2022-09-14T07:42:27.246Z,8.50
2022-09-14T07:43:27.233Z,9.70
2022-09-14T07:44:27.213Z,8.90
2022-09-14T07:45:27.217Z,8.40
2022-09-14T07:46:27.239Z,9.20
2022-09-14T07:47:27.164Z,7.60
2022-09-14T07:48:27.206Z,8.90
2022-09-14T07:49:27.158Z,9.30
2022-09-14T07:50:27.150Z,11.50
2022-09-14T07:51:27.193Z,8.70
2022-09-14T07:52:27.148Z,10.00
2022-09-14T07:53:27.170Z,8.30
2022-09-14T07:54:27.135Z,7.70
2022-09-14T07:55:27.105Z,9.60
2022-09-14T07:56:27.177Z,7.50
2022-09-14T07:57:52.177Z,10.80
2022-09-14T07:58:27.075Z,10.50
2022-09-14T07:59:42.285Z,8.60
2022-09-14T08:00:29.042Z,10.50
2022-09-14T08:01:27.116Z,13.60
2022-09-14T08:02:27.065Z,10.90
2022-09-14T08:03:27.027Z,11.60
2022-09-14T08:04:27.012Z,10.70
2022-09-14T08:05:26.978Z,9.50
2022-09-14T08:06:27.673Z,11.90
2022-09-14T08:07:26.969Z,11.90
2022-09-14T08:08:26.954Z,11.20
2022-09-14T08:09:26.946Z,10.60
2022-09-14T08:10:26.942Z,18.10
2022-09-14T08:11:26.921Z,11.50
2022-09-14T08:12:26.933Z,11.90
2022-09-14T08:13:26.921Z,12.80
2022-09-14T08:14:26.900Z,14.30
2022-09-14T08:15:28.645Z,13.10
2022-09-14T08:16:26.909Z,12.60
2022-09-14T08:17:26.898Z,13.30
2022-09-14T08:18:26.878Z,13.50
2022-09-14T08:19:26.851Z,14.10
2022-09-14T08:20:26.824Z,13.30
2022-09-14T08:21:26.866Z,12.80
2022-09-14T08:22:26.857Z,15.80
2022-09-14T08:23:26.813Z,17.80
2022-09-14T08:24:26.805Z,12.90
2022-09-14T08:25:26.798Z,17.50
2022-09-14T08:26:26.766Z,13.10
2022-09-14T08:27:26.791Z,15.20
2022-09-14T08:28:26.765Z,15.50
2022-09-14T08:29:26.748Z,14.70
2022-09-14T08:30:27.761Z,12.30
2022-09-14T08:31:26.750Z,12.50
2022-09-14T08:32:26.765Z,15.00
2022-09-14T08:33:26.746Z,11.90
2022-09-14T08:34:26.693Z,15.90
2022-09-14T08:35:46.851Z,14.10
2022-09-14T08:36:26.686Z,13.70
2022-09-14T08:37:26.692Z,13.40
2022-09-14T08:38:26.633Z,13.40
2022-09-14T08:39:26.649Z,14.90
2022-09-14T08:40:26.659Z,10.70
2022-09-14T08:41:26.619Z,13.30
2022-09-14T08:42:26.626Z,14.70
2022-09-14T08:43:26.649Z,10.40
2022-09-14T08:44:26.607Z,12.00
2022-09-14T08:45:26.630Z,12.00
2022-09-14T08:46:26.613Z,9.20
2022-09-14T08:47:26.624Z,11.00
2022-09-14T08:48:26.583Z,11.20
2022-09-14T08:49:26.538Z,10.70
2022-09-14T08:50:26.524Z,11.70
2022-09-14T08:51:26.510Z,11.20
2022-09-14T08:52:26.532Z,10.70
2022-09-14T08:53:26.488Z,10.90
2022-09-14T08:54:26.508Z,10.90
2022-09-14T08:55:26.478Z,10.10
2022-09-14T08:56:26.447Z,10.60
2022-09-14T08:57:26.453Z,10.90
2022-09-14T08:58:26.469Z,10.10
2022-09-14T08:59:26.468Z,9.90
2022-09-14T09:00:26.403Z,8.60
2022-09-14T09:01:26.481Z,9.10
2022-09-14T09:02:26.386Z,8.80
2022-09-14T09:03:26.442Z,10.00
2022-09-14T09:04:26.398Z,7.70
2022-09-14T09:05:26.437Z,9.30
2022-09-14T09:06:26.355Z,10.10
2022-09-14T09:07:26.367Z,10.00
2022-09-14T09:08:26.332Z,10.40
2022-09-14T09:09:26.295Z,13.10
2022-09-14T09:10:26.331Z,14.90
2022-09-14T09:11:26.312Z,16.90
2022-09-14T09:12:26.279Z,14.10
2022-09-14T09:13:26.261Z,16.10
2022-09-14T09:14:26.268Z,14.80
2022-09-14T09:15:26.225Z,16.40
2022-09-14T09:16:26.274Z,15.00
2022-09-14T09:17:26.220Z,15.60
2022-09-14T09:18:26.199Z,19.20
2022-09-14T09:19:28.706Z,16.60
2022-09-14T09:20:26.189Z,20.90
2022-09-14T09:21:26.192Z,21.90
2022-09-14T09:22:26.168Z,16.60
2022-09-14T09:23:26.170Z,17.80
2022-09-14T09:24:26.261Z,20.30
2022-09-14T09:25:26.174Z,15.70
2022-09-14T09:26:26.194Z,17.70
2022-09-14T09:27:26.138Z,18.60
2022-09-14T09:28:26.100Z,18.70
2022-09-14T09:29:26.094Z,20.80
2022-09-14T09:30:26.090Z,22.20
2022-09-14T09:31:26.165Z,18.30
2022-09-14T09:32:26.084Z,21.20
2022-09-14T09:33:26.041Z,19.50
2022-09-14T09:34:26.042Z,18.10
2022-09-14T09:35:26.045Z,19.20
2022-09-14T09:36:26.009Z,22.20
2022-09-14T09:37:26.024Z,21.10
2022-09-14T09:38:26.009Z,24.80
2022-09-14T09:39:25.993Z,22.00
2022-09-14T09:40:26.035Z,19.50
2022-09-14T09:41:25.981Z,17.80
2022-09-14T09:42:25.984Z,20.60
2022-09-14T09:43:47.833Z,19.80
2022-09-14T09:44:25.954Z,21.10
2022-09-14T09:45:25.923Z,21.10
2022-09-14T09:46:25.979Z,19.90
2022-09-14T09:47:25.928Z,19.70
2022-09-14T09:48:25.916Z,15.20
2022-09-14T09:49:25.883Z,22.80
2022-09-14T09:50:25.905Z,19.50
2022-09-14T09:51:25.868Z,21.40
2022-09-14T09:52:25.870Z,17.60
2022-09-14T09:53:25.851Z,22.60
2022-09-14T09:54:25.848Z,18.10
2022-09-14T09:55:25.803Z,20.80
2022-09-14T09:56:27.018Z,14.60
2022-09-14T09:57:25.833Z,17.40
2022-09-14T09:58:25.781Z,14.70
2022-09-14T09:59:25.781Z,18.50
2022-09-14T10:00:25.784Z,17.40
2022-09-14T10:01:25.812Z,17.90
2022-09-14T10:02:25.885Z,18.90
2022-09-14T10:03:25.750Z,22.10
2022-09-14T10:04:25.710Z,17.60
2022-09-14T10:05:25.742Z,21.50
2022-09-14T10:06:25.733Z,17.90
2022-09-14T10:07:25.746Z,19.10
2022-09-14T10:08:25.695Z,20.60
2022-09-14T10:09:25.679Z,17.50
2022-09-14T10:10:25.663Z,20.00
2022-09-14T10:11:25.651Z,19.50
2022-09-14T10:12:25.682Z,16.80
2022-09-14T10:13:25.665Z,18.90
2022-09-14T10:14:25.611Z,16.00
2022-09-14T10:15:25.605Z,16.10
2022-09-14T10:16:25.685Z,19.60
2022-09-14T10:17:25.568Z,21.20
2022-09-14T10:18:25.590Z,19.40
2022-09-14T10:19:25.593Z,22.20
2022-09-14T10:20:25.579Z,20.30
2022-09-14T10:21:25.553Z,24.80
2022-09-14T10:22:26.615Z,21.20
2022-09-14T10:23:26.554Z,19.70
2022-09-14T10:24:25.519Z,23.40
2022-09-14T10:25:25.517Z,25.30
2022-09-14T10:26:25.494Z,19.70
2022-09-14T10:27:25.500Z,21.80
2022-09-14T10:28:25.506Z,28.20
2022-09-14T10:29:25.453Z,23.10
2022-09-14T10:30:25.460Z,27.90
2022-09-14T10:31:25.486Z,25.60
2022-09-14T10:32:25.472Z,25.20
2022-09-14T10:33:25.491Z,25.70
2022-09-14T10:34:25.429Z,29.20
2022-09-14T10:35:25.404Z,28.00
2022-09-14T10:36:25.420Z,25.40
2022-09-14T10:37:25.405Z,26.30
2022-09-14T10:38:25.368Z,27.00
2022-09-14T10:39:26.293Z,25.10
2022-09-14T10:40:25.385Z,25.40
2022-09-14T10:41:25.330Z,32.50
2022-09-14T10:42:25.400Z,25.20
2022-09-14T10:43:25.334Z,25.30
2022-09-14T10:44:25.340Z,26.70
2022-09-14T10:45:25.285Z,24.40
2022-09-14T10:46:25.322Z,30.50
2022-09-14T10:47:25.263Z,31.70
2022-09-14T10:48:25.276Z,28.10
2022-09-14T10:49:25.278Z,20.10
2022-09-14T10:50:25.250Z,27.50
2022-09-14T10:51:25.232Z,33.10
2022-09-14T10:52:25.206Z,25.20
2022-09-14T10:53:25.225Z,30.50
2022-09-14T10:54:25.233Z,30.20
2022-09-14T10:55:25.200Z,33.30
2022-09-14T10:56:25.180Z,26.30
2022-09-14T10:57:25.172Z,27.70
2022-09-14T10:58:25.153Z,29.20
2022-09-14T10:59:25.204Z,29.50
2022-09-14T11:00:25.424Z,24.90
2022-09-14T11:01:25.147Z,20.40
2022-09-14T11:02:25.312Z,24.40
2022-09-14T11:03:25.111Z,21.60
2022-09-14T11:04:25.086Z,26.20
2022-09-14T11:05:25.102Z,26.10
2022-09-14T11:06:25.090Z,24.90
2022-09-14T11:07:25.048Z,24.30
2022-09-14T11:08:25.046Z,20.10
2022-09-14T11:09:25.276Z,20.10
2022-09-14T11:10:25.100Z,25.40
2022-09-14T11:11:24.999Z,23.20
2022-09-14T11:12:25.001Z,23.50
2022-09-14T11:13:24.988Z,24.60
2022-09-14T11:14:24.969Z,31.90
2022-09-14T11:15:24.963Z,27.60
2022-09-14T11:16:25.059Z,23.90
2022-09-14T11:17:24.944Z,21.20
2022-09-14T11:18:24.934Z,20.90
2022-09-14T11:19:24.924Z,24.70
2022-09-14T11:20:24.921Z,25.50
2022-09-14T11:21:24.954Z,24.90
2022-09-14T11:22:24.895Z,29.40
2022-09-14T11:23:24.861Z,21.80
2022-09-14T11:24:24.861Z,15.90
2022-09-14T11:25:24.870Z,14.90
2022-09-14T11:26:24.881Z,19.10
2022-09-14T11:27:24.836Z,17.70
2022-09-14T11:28:24.829Z,16.90
2022-09-14T11:29:24.821Z,15.60
2022-09-14T11:30:25.652Z,12.50
2022-09-14T11:31:24.880Z,13.40
2022-09-14T11:32:24.807Z,17.80
2022-09-14T11:33:29.053Z,13.40
2022-09-14T11:34:24.768Z,12.30
2022-09-14T11:35:24.768Z,15.80
2022-09-14T11:36:24.778Z,13.40
2022-09-14T11:37:24.798Z,12.60
2022-09-14T11:38:24.699Z,12.40
2022-09-14T11:39:24.719Z,8.50
2022-09-14T11:40:24.738Z,8.20
2022-09-14T11:41:24.677Z,10.00
2022-09-14T11:42:24.739Z,8.80
2022-09-14T11:43:24.740Z,9.30
2022-09-14T11:44:24.663Z,11.10
2022-09-14T11:45:24.654Z,9.90
2022-09-14T11:46:24.689Z,6.50
2022-09-14T11:47:24.682Z,6.50
2022-09-14T11:49:26.612Z,3.50
2022-09-14T11:50:24.600Z,4.10
2022-09-14T11:51:24.585Z,1.80
2022-09-14T11:52:24.578Z,2.90
2022-09-14T11:53:24.613Z,1.40
2022-09-14T11:54:24.558Z,2.00
2022-09-14T11:55:25.122Z,2.10
2022-09-14T11:56:24.527Z,1.30
2022-09-14T11:57:24.516Z,3.40
2022-09-14T11:58:24.543Z,1.50
2022-09-14T11:59:24.487Z,2.70
2022-09-14T12:00:24.501Z,0.60
2022-09-14T12:01:24.476Z,0.60
2022-09-14T12:02:24.480Z,1.50
2022-09-14T12:03:24.534Z,1.50
2022-09-14T12:04:24.987Z,0.60
2022-09-14T12:05:24.464Z,1.90
2022-09-14T12:06:24.445Z,1.60
2022-09-14T12:07:24.403Z,0.40
2022-09-14T12:08:24.402Z,2.50
2022-09-14T12:11:21.235Z,0.80
2022-09-14T12:12:21.135Z,0.60
2022-09-14T12:13:21.302Z,0.30
2022-09-14T12:14:21.056Z,0.40
2022-09-14T12:15:21.250Z,0.30
2022-09-14T12:16:21.039Z,0.80
2022-09-14T12:18:20.994Z,0.80
2022-09-14T12:19:20.987Z,0.40
2022-09-14T12:20:20.986Z,0.70
2022-09-14T12:21:20.995Z,1.20
2022-09-14T12:22:20.952Z,0.50
2022-09-14T12:23:20.949Z,0.50
2022-09-14T12:24:20.921Z,0.60
2022-09-14T12:25:21.088Z,0.80
2022-09-14T12:26:20.948Z,1.10
2022-09-14T12:27:20.901Z,0.80
2022-09-14T12:28:20.898Z,1.20
2022-09-14T12:29:20.875Z,2.00
2022-09-14T12:30:20.855Z,0.80
2022-09-14T12:31:20.938Z,1.20
2022-09-14T12:32:35.730Z,0.50
2022-09-14T12:33:20.841Z,0.40
2022-09-14T12:34:20.813Z,1.00
2022-09-14T12:35:20.809Z,0.80
2022-09-14T12:36:20.803Z,0.30
2022-09-14T12:37:20.806Z,0.40
2022-09-14T12:38:20.773Z,0.90
2022-09-14T12:39:20.785Z,0.50
2022-09-14T12:40:20.830Z,0.40
2022-09-14T12:41:20.743Z,1.30
2022-09-14T12:42:25.153Z,1.50
2022-09-14T12:43:20.715Z,0.50
2022-09-14T12:44:20.722Z,0.40
2022-09-14T12:45:20.696Z,1.40
2022-09-14T12:46:20.823Z,0.40
2022-09-14T12:47:20.713Z,2.00
2022-09-14T12:48:20.652Z,0.90
2022-09-14T12:49:20.651Z,1.00
2022-09-14T12:50:20.665Z,0.80
2022-09-14T12:51:20.632Z,0.40
2022-09-14T12:52:20.607Z,0.90
2022-09-14T12:53:20.634Z,0.80
2022-09-14T12:54:20.603Z,0.40
2022-09-14T12:55:20.585Z,0.20
2022-09-14T12:56:20.571Z,0.30
2022-09-14T12:57:20.563Z,0.60
2022-09-14T12:58:20.597Z,1.10
2022-09-14T12:59:20.546Z,0.60
2022-09-14T13:00:20.516Z,1.10
2022-09-14T13:01:20.631Z,0.30
2022-09-14T13:02:20.580Z,1.00
2022-09-14T13:03:20.708Z,0.30
2022-09-14T13:04:20.503Z,2.10
2022-09-14T13:05:22.117Z,1.20
2022-09-14T13:06:23.229Z,0.30
2022-09-14T13:07:20.779Z,1.10